sensor_id;sensor_type;location;lat;lon;timestamp;P1;durP1;ratioP1;P2;durP2;ratioP2
12956;SDS011;6543;48.836;10.092;2023-09-12T00:00:06;15.30;;;8.70;;
12956;SDS011;6543;48.836;10.092;2023-09-12T00:02:34;15.07;;;9.83;;
12956;SDS011;6543;48.836;10.092;2023-09-12T00:05:00;14.43;;;8.07;;
12956;SDS011;6543;48.836;10.092;2023-09-12T00:07:29;16.17;;;6.63;;
12956;SDS011;6543;48.836;10.092;2023-09-12T00:09:56;10.77;;;5.80;;
12956;SDS011;6543;48.836;10.092;2023-09-12T00:12:23;14.27;;;6.00;;
12956;SDS011;6543;48.836;10.092;2023-09-12T00:14:50;11.00;;;6.37;;
12956;SDS011;6543;48.836;10.092;2023-09-12T00:17:19;14.73;;;7.40;;
12956;SDS011;6543;48.836;10.092;2023-09-12T00:19:45;10.43;;;7.17;;
12956;SDS011;6543;48.836;10.092;2023-09-12T00:22:12;13.40;;;7.47;;
12956;SDS011;6543;48.836;10.092;2023-09-12T00:24:39;13.20;;;7.30;;
12956;SDS011;6543;48.836;10.092;2023-09-12T00:27:06;12.67;;;7.53;;
12956;SDS011;6543;48.836;10.092;2023-09-12T00:29:33;13.53;;;7.57;;
12956;SDS011;6543;48.836;10.092;2023-09-12T00:32:00;11.43;;;7.30;;
12956;SDS011;6543;48.836;10.092;2023-09-12T00:34:28;12.57;;;7.10;;
12956;SDS011;6543;48.836;10.092;2023-09-12T00:36:55;12.40;;;8.03;;
12956;SDS011;6543;48.836;10.092;2023-09-12T00:39:22;12.60;;;7.60;;
12956;SDS011;6543;48.836;10.092;2023-09-12T00:41:49;13.53;;;7.40;;
12956;SDS011;6543;48.836;10.092;2023-09-12T00:44:15;13.93;;;7.57;;
12956;SDS011;6543;48.836;10.092;2023-09-12T00:46:42;13.00;;;7.53;;
12956;SDS011;6543;48.836;10.092;2023-09-12T00:49:12;10.77;;;7.53;;
12956;SDS011;6543;48.836;10.092;2023-09-12T00:51:41;8.70;;;6.77;;
12956;SDS011;6543;48.836;10.092;2023-09-12T00:54:09;13.37;;;5.53;;
12956;SDS011;6543;48.836;10.092;2023-09-12T00:56:36;9.23;;;4.80;;
12956;SDS011;6543;48.836;10.092;2023-09-12T00:59:03;12.07;;;5.57;;
12956;SDS011;6543;48.836;10.092;2023-09-12T01:01:31;9.97;;;4.53;;
12956;SDS011;6543;48.836;10.092;2023-09-12T01:03:59;17.50;;;5.07;;
12956;SDS011;6543;48.836;10.092;2023-09-12T01:06:27;8.13;;;4.57;;
12956;SDS011;6543;48.836;10.092;2023-09-12T01:08:58;8.73;;;5.73;;
12956;SDS011;6543;48.836;10.092;2023-09-12T01:11:25;15.07;;;6.80;;
12956;SDS011;6543;48.836;10.092;2023-09-12T01:13:52;11.43;;;6.33;;
12956;SDS011;6543;48.836;10.092;2023-09-12T01:16:19;13.27;;;6.47;;
12956;SDS011;6543;48.836;10.092;2023-09-12T01:18:46;12.50;;;7.27;;
12956;SDS011;6543;48.836;10.092;2023-09-12T01:21:38;11.23;;;7.10;;
12956;SDS011;6543;48.836;10.092;2023-09-12T01:24:17;14.13;;;7.13;;
12956;SDS011;6543;48.836;10.092;2023-09-12T01:27:20;9.97;;;6.63;;
12956;SDS011;6543;48.836;10.092;2023-09-12T01:29:49;13.70;;;6.83;;
12956;SDS011;6543;48.836;10.092;2023-09-12T01:32:20;13.40;;;7.13;;
12956;SDS011;6543;48.836;10.092;2023-09-12T01:34:46;11.53;;;7.80;;
12956;SDS011;6543;48.836;10.092;2023-09-12T01:37:13;11.40;;;7.67;;
12956;SDS011;6543;48.836;10.092;2023-09-12T01:39:40;11.77;;;7.97;;
12956;SDS011;6543;48.836;10.092;2023-09-12T01:42:08;11.57;;;7.23;;
12956;SDS011;6543;48.836;10.092;2023-09-12T01:44:39;17.40;;;7.57;;
12956;SDS011;6543;48.836;10.092;2023-09-12T01:47:07;13.37;;;7.90;;
12956;SDS011;6543;48.836;10.092;2023-09-12T01:49:34;12.00;;;7.77;;
12956;SDS011;6543;48.836;10.092;2023-09-12T01:52:03;12.77;;;8.07;;
12956;SDS011;6543;48.836;10.092;2023-09-12T01:54:30;13.37;;;7.77;;
12956;SDS011;6543;48.836;10.092;2023-09-12T01:56:59;13.10;;;7.53;;
12956;SDS011;6543;48.836;10.092;2023-09-12T01:59:27;12.90;;;7.80;;
12956;SDS011;6543;48.836;10.092;2023-09-12T02:01:56;15.27;;;7.37;;
12956;SDS011;6543;48.836;10.092;2023-09-12T02:04:22;12.87;;;7.43;;
12956;SDS011;6543;48.836;10.092;2023-09-12T02:06:49;14.17;;;7.60;;
12956;SDS011;6543;48.836;10.092;2023-09-12T02:09:16;12.80;;;6.93;;
12956;SDS011;6543;48.836;10.092;2023-09-12T02:11:43;13.37;;;7.47;;
12956;SDS011;6543;48.836;10.092;2023-09-12T02:14:10;11.50;;;6.00;;
12956;SDS011;6543;48.836;10.092;2023-09-12T02:16:37;7.77;;;5.37;;
12956;SDS011;6543;48.836;10.092;2023-09-12T02:19:05;12.20;;;5.90;;
12956;SDS011;6543;48.836;10.092;2023-09-12T02:21:32;18.77;;;6.60;;
12956;SDS011;6543;48.836;10.092;2023-09-12T02:23:59;13.10;;;6.00;;
12956;SDS011;6543;48.836;10.092;2023-09-12T02:26:26;15.47;;;8.40;;
12956;SDS011;6543;48.836;10.092;2023-09-12T02:28:53;12.27;;;7.70;;
12956;SDS011;6543;48.836;10.092;2023-09-12T02:31:19;21.40;;;7.60;;
12956;SDS011;6543;48.836;10.092;2023-09-12T02:33:46;18.43;;;7.63;;
12956;SDS011;6543;48.836;10.092;2023-09-12T02:36:14;14.17;;;8.00;;
12956;SDS011;6543;48.836;10.092;2023-09-12T02:38:41;17.17;;;9.07;;
12956;SDS011;6543;48.836;10.092;2023-09-12T02:41:08;12.33;;;8.43;;
12956;SDS011;6543;48.836;10.092;2023-09-12T02:43:35;17.80;;;8.30;;
12956;SDS011;6543;48.836;10.092;2023-09-12T02:46:02;13.33;;;7.10;;
12956;SDS011;6543;48.836;10.092;2023-09-12T02:48:28;12.87;;;7.47;;
12956;SDS011;6543;48.836;10.092;2023-09-12T02:50:55;11.17;;;7.20;;
12956;SDS011;6543;48.836;10.092;2023-09-12T02:53:23;17.17;;;7.27;;
12956;SDS011;6543;48.836;10.092;2023-09-12T02:55:50;11.07;;;7.53;;
12956;SDS011;6543;48.836;10.092;2023-09-12T02:58:19;16.23;;;6.80;;
12956;SDS011;6543;48.836;10.092;2023-09-12T03:00:46;11.87;;;7.43;;
12956;SDS011;6543;48.836;10.092;2023-09-12T03:03:15;13.20;;;7.27;;
12956;SDS011;6543;48.836;10.092;2023-09-12T03:05:42;16.13;;;8.00;;
12956;SDS011;6543;48.836;10.092;2023-09-12T03:08:08;14.73;;;6.97;;
12956;SDS011;6543;48.836;10.092;2023-09-12T03:10:37;12.77;;;7.07;;
12956;SDS011;6543;48.836;10.092;2023-09-12T03:13:03;13.37;;;6.87;;
12956;SDS011;6543;48.836;10.092;2023-09-12T03:15:35;12.17;;;6.63;;
12956;SDS011;6543;48.836;10.092;2023-09-12T03:18:02;11.03;;;7.20;;
12956;SDS011;6543;48.836;10.092;2023-09-12T03:20:30;9.80;;;6.00;;
12956;SDS011;6543;48.836;10.092;2023-09-12T03:22:57;18.80;;;7.60;;
12956;SDS011;6543;48.836;10.092;2023-09-12T03:25:23;12.50;;;6.87;;
12956;SDS011;6543;48.836;10.092;2023-09-12T03:27:52;9.37;;;5.80;;
12956;SDS011;6543;48.836;10.092;2023-09-12T03:30:19;14.50;;;6.10;;
12956;SDS011;6543;48.836;10.092;2023-09-12T03:32:46;11.67;;;6.10;;
12956;SDS011;6543;48.836;10.092;2023-09-12T03:35:13;12.30;;;7.10;;
12956;SDS011;6543;48.836;10.092;2023-09-12T03:37:40;10.20;;;5.70;;
12956;SDS011;6543;48.836;10.092;2023-09-12T03:40:08;10.30;;;5.43;;
12956;SDS011;6543;48.836;10.092;2023-09-12T03:42:36;12.57;;;5.47;;
12956;SDS011;6543;48.836;10.092;2023-09-12T03:45:05;9.80;;;5.67;;
12956;SDS011;6543;48.836;10.092;2023-09-12T03:47:33;18.33;;;6.20;;
12956;SDS011;6543;48.836;10.092;2023-09-12T03:50:00;16.10;;;6.43;;
12956;SDS011;6543;48.836;10.092;2023-09-12T03:52:27;10.50;;;6.57;;
12956;SDS011;6543;48.836;10.092;2023-09-12T03:54:54;10.50;;;6.10;;
12956;SDS011;6543;48.836;10.092;2023-09-12T03:57:20;11.13;;;5.97;;
12956;SDS011;6543;48.836;10.092;2023-09-12T03:59:47;13.97;;;7.03;;
12956;SDS011;6543;48.836;10.092;2023-09-12T04:02:17;12.57;;;6.70;;
12956;SDS011;6543;48.836;10.092;2023-09-12T04:04:44;9.57;;;6.33;;
12956;SDS011;6543;48.836;10.092;2023-09-12T04:07:11;12.73;;;6.13;;
12956;SDS011;6543;48.836;10.092;2023-09-12T04:09:38;14.57;;;7.30;;
12956;SDS011;6543;48.836;10.092;2023-09-12T04:12:05;13.97;;;6.70;;
12956;SDS011;6543;48.836;10.092;2023-09-12T04:14:34;13.83;;;6.90;;
12956;SDS011;6543;48.836;10.092;2023-09-12T04:17:01;10.33;;;6.53;;
12956;SDS011;6543;48.836;10.092;2023-09-12T04:19:29;13.23;;;7.57;;
12956;SDS011;6543;48.836;10.092;2023-09-12T04:21:56;12.40;;;6.53;;
12956;SDS011;6543;48.836;10.092;2023-09-12T04:24:24;13.23;;;6.97;;
12956;SDS011;6543;48.836;10.092;2023-09-12T04:26:51;8.47;;;6.53;;
12956;SDS011;6543;48.836;10.092;2023-09-12T04:29:19;12.03;;;7.27;;
12956;SDS011;6543;48.836;10.092;2023-09-12T04:31:46;15.90;;;6.97;;
12956;SDS011;6543;48.836;10.092;2023-09-12T04:34:13;14.53;;;8.07;;
12956;SDS011;6543;48.836;10.092;2023-09-12T04:36:41;19.40;;;7.83;;
12956;SDS011;6543;48.836;10.092;2023-09-12T04:39:08;17.37;;;8.80;;
12956;SDS011;6543;48.836;10.092;2023-09-12T04:41:35;14.80;;;8.53;;
12956;SDS011;6543;48.836;10.092;2023-09-12T04:44:02;16.87;;;9.07;;
12956;SDS011;6543;48.836;10.092;2023-09-12T04:46:29;18.30;;;8.27;;
12956;SDS011;6543;48.836;10.092;2023-09-12T04:48:56;15.80;;;7.93;;
12956;SDS011;6543;48.836;10.092;2023-09-12T04:51:23;14.37;;;7.47;;
12956;SDS011;6543;48.836;10.092;2023-09-12T04:53:53;14.67;;;7.20;;
12956;SDS011;6543;48.836;10.092;2023-09-12T04:56:20;17.33;;;8.10;;
12956;SDS011;6543;48.836;10.092;2023-09-12T04:58:49;18.10;;;8.83;;
12956;SDS011;6543;48.836;10.092;2023-09-12T05:01:16;12.67;;;8.00;;
12956;SDS011;6543;48.836;10.092;2023-09-12T05:03:43;16.47;;;9.00;;
12956;SDS011;6543;48.836;10.092;2023-09-12T05:06:10;19.67;;;8.87;;
12956;SDS011;6543;48.836;10.092;2023-09-12T05:08:37;21.33;;;9.43;;
12956;SDS011;6543;48.836;10.092;2023-09-12T05:11:05;15.47;;;8.00;;
12956;SDS011;6543;48.836;10.092;2023-09-12T05:13:32;19.80;;;8.87;;
12956;SDS011;6543;48.836;10.092;2023-09-12T05:15:58;19.97;;;9.07;;
12956;SDS011;6543;48.836;10.092;2023-09-12T05:18:25;23.33;;;9.03;;
12956;SDS011;6543;48.836;10.092;2023-09-12T05:20:52;14.07;;;7.90;;
12956;SDS011;6543;48.836;10.092;2023-09-12T05:23:19;15.67;;;8.23;;
12956;SDS011;6543;48.836;10.092;2023-09-12T05:25:46;21.43;;;8.37;;
12956;SDS011;6543;48.836;10.092;2023-09-12T05:28:14;16.33;;;8.30;;
12956;SDS011;6543;48.836;10.092;2023-09-12T05:30:41;17.73;;;8.67;;
12956;SDS011;6543;48.836;10.092;2023-09-12T05:33:08;16.87;;;8.37;;
12956;SDS011;6543;48.836;10.092;2023-09-12T05:35:35;18.40;;;8.80;;
12956;SDS011;6543;48.836;10.092;2023-09-12T05:38:02;20.63;;;9.57;;
12956;SDS011;6543;48.836;10.092;2023-09-12T05:40:29;18.30;;;8.87;;
12956;SDS011;6543;48.836;10.092;2023-09-12T05:42:56;19.17;;;9.40;;
12956;SDS011;6543;48.836;10.092;2023-09-12T05:45:24;14.40;;;8.20;;
12956;SDS011;6543;48.836;10.092;2023-09-12T05:47:51;21.27;;;10.43;;
12956;SDS011;6543;48.836;10.092;2023-09-12T05:50:18;14.77;;;8.63;;
12956;SDS011;6543;48.836;10.092;2023-09-12T05:52:45;16.47;;;7.27;;
12956;SDS011;6543;48.836;10.092;2023-09-12T05:55:12;18.27;;;6.90;;
12956;SDS011;6543;48.836;10.092;2023-09-12T05:57:39;18.63;;;7.13;;
12956;SDS011;6543;48.836;10.092;2023-09-12T06:00:06;18.13;;;6.57;;
12956;SDS011;6543;48.836;10.092;2023-09-12T06:02:37;14.73;;;6.67;;
12956;SDS011;6543;48.836;10.092;2023-09-12T06:05:05;17.07;;;9.67;;
12956;SDS011;6543;48.836;10.092;2023-09-12T06:07:33;29.23;;;13.73;;
12956;SDS011;6543;48.836;10.092;2023-09-12T06:10:00;31.27;;;14.97;;
12956;SDS011;6543;48.836;10.092;2023-09-12T06:12:28;29.33;;;12.33;;
12956;SDS011;6543;48.836;10.092;2023-09-12T06:14:55;26.07;;;10.00;;
12956;SDS011;6543;48.836;10.092;2023-09-12T06:17:22;19.90;;;9.30;;
12956;SDS011;6543;48.836;10.092;2023-09-12T06:19:50;20.90;;;9.67;;
12956;SDS011;6543;48.836;10.092;2023-09-12T06:22:17;27.43;;;11.07;;
12956;SDS011;6543;48.836;10.092;2023-09-12T06:24:44;33.23;;;11.00;;
12956;SDS011;6543;48.836;10.092;2023-09-12T06:27:11;24.23;;;9.63;;
12956;SDS011;6543;48.836;10.092;2023-09-12T06:29:43;19.60;;;9.27;;
12956;SDS011;6543;48.836;10.092;2023-09-12T06:32:10;22.13;;;8.67;;
12956;SDS011;6543;48.836;10.092;2023-09-12T06:34:37;22.17;;;9.48;;
12956;SDS011;6543;48.836;10.092;2023-09-12T06:37:06;24.90;;;8.75;;
12956;SDS011;6543;48.836;10.092;2023-09-12T06:39:34;17.98;;;7.35;;
12956;SDS011;6543;48.836;10.092;2023-09-12T06:42:01;23.92;;;8.23;;
12956;SDS011;6543;48.836;10.092;2023-09-12T06:44:28;20.48;;;6.68;;
12956;SDS011;6543;48.836;10.092;2023-09-12T06:46:55;20.73;;;7.05;;
12956;SDS011;6543;48.836;10.092;2023-09-12T06:49:24;18.48;;;6.80;;
12956;SDS011;6543;48.836;10.092;2023-09-12T06:51:51;17.90;;;6.05;;
12956;SDS011;6543;48.836;10.092;2023-09-12T06:54:20;25.27;;;6.55;;
12956;SDS011;6543;48.836;10.092;2023-09-12T06:56:50;21.13;;;6.65;;
12956;SDS011;6543;48.836;10.092;2023-09-12T06:59:17;13.85;;;5.20;;
12956;SDS011;6543;48.836;10.092;2023-09-12T07:01:44;19.40;;;6.72;;
12956;SDS011;6543;48.836;10.092;2023-09-12T07:04:11;12.43;;;5.65;;
12956;SDS011;6543;48.836;10.092;2023-09-12T07:06:41;20.27;;;5.95;;
12956;SDS011;6543;48.836;10.092;2023-09-12T07:09:08;12.23;;;5.50;;
12956;SDS011;6543;48.836;10.092;2023-09-12T07:11:40;12.57;;;5.60;;
12956;SDS011;6543;48.836;10.092;2023-09-12T07:14:07;12.23;;;5.60;;
12956;SDS011;6543;48.836;10.092;2023-09-12T07:16:35;15.93;;;6.20;;
12956;SDS011;6543;48.836;10.092;2023-09-12T07:19:02;22.88;;;7.35;;
12956;SDS011;6543;48.836;10.092;2023-09-12T07:21:29;10.13;;;5.50;;
12956;SDS011;6543;48.836;10.092;2023-09-12T07:23:57;12.43;;;5.70;;
12956;SDS011;6543;48.836;10.092;2023-09-12T07:26:24;17.58;;;5.60;;
12956;SDS011;6543;48.836;10.092;2023-09-12T07:28:52;11.40;;;6.15;;
12956;SDS011;6543;48.836;10.092;2023-09-12T07:31:19;16.25;;;7.25;;
12956;SDS011;6543;48.836;10.092;2023-09-12T07:33:46;20.02;;;6.20;;
12956;SDS011;6543;48.836;10.092;2023-09-12T07:36:13;12.25;;;5.85;;
12956;SDS011;6543;48.836;10.092;2023-09-12T07:38:40;22.70;;;6.90;;
12956;SDS011;6543;48.836;10.092;2023-09-12T07:41:07;17.02;;;6.35;;
12956;SDS011;6543;48.836;10.092;2023-09-12T07:43:34;25.63;;;6.13;;
12956;SDS011;6543;48.836;10.092;2023-09-12T07:46:02;19.02;;;6.50;;
12956;SDS011;6543;48.836;10.092;2023-09-12T07:48:29;13.95;;;6.43;;
12956;SDS011;6543;48.836;10.092;2023-09-12T07:50:57;21.10;;;7.18;;
12956;SDS011;6543;48.836;10.092;2023-09-12T07:53:24;17.23;;;7.13;;
12956;SDS011;6543;48.836;10.092;2023-09-12T07:55:51;13.43;;;5.97;;
12956;SDS011;6543;48.836;10.092;2023-09-12T07:58:19;14.25;;;6.45;;
12956;SDS011;6543;48.836;10.092;2023-09-12T08:00:46;17.88;;;7.10;;
12956;SDS011;6543;48.836;10.092;2023-09-12T08:03:15;11.65;;;6.68;;
12956;SDS011;6543;48.836;10.092;2023-09-12T08:05:43;12.48;;;6.15;;
12956;SDS011;6543;48.836;10.092;2023-09-12T08:08:11;11.05;;;5.60;;
12956;SDS011;6543;48.836;10.092;2023-09-12T08:10:38;9.48;;;6.57;;
12956;SDS011;6543;48.836;10.092;2023-09-12T08:13:05;13.93;;;6.53;;
12956;SDS011;6543;48.836;10.092;2023-09-12T08:15:32;11.25;;;7.28;;
12956;SDS011;6543;48.836;10.092;2023-09-12T08:17:58;15.00;;;6.50;;
12956;SDS011;6543;48.836;10.092;2023-09-12T08:20:27;8.32;;;5.90;;
12956;SDS011;6543;48.836;10.092;2023-09-12T08:22:54;9.35;;;6.25;;
12956;SDS011;6543;48.836;10.092;2023-09-12T08:25:21;14.52;;;7.35;;
12956;SDS011;6543;48.836;10.092;2023-09-12T08:27:49;10.15;;;7.63;;
12956;SDS011;6543;48.836;10.092;2023-09-12T08:30:16;9.73;;;6.70;;
12956;SDS011;6543;48.836;10.092;2023-09-12T08:32:43;14.18;;;8.85;;
12956;SDS011;6543;48.836;10.092;2023-09-12T08:35:10;11.43;;;8.48;;
12956;SDS011;6543;48.836;10.092;2023-09-12T08:37:40;12.40;;;7.13;;
12956;SDS011;6543;48.836;10.092;2023-09-12T08:40:08;10.38;;;8.07;;
12956;SDS011;6543;48.836;10.092;2023-09-12T08:42:39;14.05;;;8.88;;
12956;SDS011;6543;48.836;10.092;2023-09-12T08:45:08;12.13;;;8.27;;
12956;SDS011;6543;48.836;10.092;2023-09-12T08:47:39;15.35;;;7.95;;
12956;SDS011;6543;48.836;10.092;2023-09-12T08:50:08;14.60;;;8.27;;
12956;SDS011;6543;48.836;10.092;2023-09-12T08:52:39;10.38;;;7.07;;
12956;SDS011;6543;48.836;10.092;2023-09-12T08:55:08;10.52;;;7.40;;
12956;SDS011;6543;48.836;10.092;2023-09-12T08:57:36;10.18;;;6.85;;
12956;SDS011;6543;48.836;10.092;2023-09-12T09:00:07;14.55;;;7.32;;
12956;SDS011;6543;48.836;10.092;2023-09-12T09:02:38;11.25;;;6.30;;
12956;SDS011;6543;48.836;10.092;2023-09-12T09:05:06;11.13;;;7.90;;
12956;SDS011;6543;48.836;10.092;2023-09-12T09:07:34;11.07;;;6.40;;
12956;SDS011;6543;48.836;10.092;2023-09-12T09:10:05;11.27;;;6.85;;
12956;SDS011;6543;48.836;10.092;2023-09-12T09:12:33;9.57;;;6.80;;
12956;SDS011;6543;48.836;10.092;2023-09-12T09:15:21;13.50;;;6.88;;
12956;SDS011;6543;48.836;10.092;2023-09-12T09:17:53;7.13;;;5.38;;
12956;SDS011;6543;48.836;10.092;2023-09-12T09:20:25;7.85;;;5.15;;
12956;SDS011;6543;48.836;10.092;2023-09-12T09:23:01;7.38;;;6.05;;
12956;SDS011;6543;48.836;10.092;2023-09-12T09:25:35;7.95;;;5.70;;
12956;SDS011;6543;48.836;10.092;2023-09-12T09:28:06;10.95;;;6.53;;
12956;SDS011;6543;48.836;10.092;2023-09-12T09:30:43;10.43;;;5.90;;
12956;SDS011;6543;48.836;10.092;2023-09-12T09:33:11;9.57;;;5.88;;
12956;SDS011;6543;48.836;10.092;2023-09-12T09:35:40;7.82;;;5.72;;
12956;SDS011;6543;48.836;10.092;2023-09-12T09:38:08;8.57;;;5.47;;
12956;SDS011;6543;48.836;10.092;2023-09-12T09:40:42;7.13;;;5.70;;
12956;SDS011;6543;48.836;10.092;2023-09-12T09:43:11;8.15;;;5.40;;
12956;SDS011;6543;48.836;10.092;2023-09-12T09:45:42;9.18;;;6.03;;
12956;SDS011;6543;48.836;10.092;2023-09-12T09:48:12;6.32;;;5.03;;
12956;SDS011;6543;48.836;10.092;2023-09-12T09:50:47;9.07;;;5.88;;
12956;SDS011;6543;48.836;10.092;2023-09-12T09:53:14;7.05;;;6.00;;
12956;SDS011;6543;48.836;10.092;2023-09-12T09:55:43;9.63;;;5.80;;
12956;SDS011;6543;48.836;10.092;2023-09-12T09:58:14;6.00;;;5.40;;
12956;SDS011;6543;48.836;10.092;2023-09-12T10:00:42;6.03;;;5.43;;
12956;SDS011;6543;48.836;10.092;2023-09-12T10:03:10;9.25;;;5.15;;
12956;SDS011;6543;48.836;10.092;2023-09-12T10:05:37;7.03;;;5.07;;
12956;SDS011;6543;48.836;10.092;2023-09-12T10:08:06;6.65;;;5.50;;
12956;SDS011;6543;48.836;10.092;2023-09-12T10:10:36;7.00;;;6.30;;
12956;SDS011;6543;48.836;10.092;2023-09-12T10:13:06;6.50;;;5.57;;
12956;SDS011;6543;48.836;10.092;2023-09-12T10:15:38;5.95;;;5.35;;
12956;SDS011;6543;48.836;10.092;2023-09-12T10:18:07;8.45;;;5.78;;
12956;SDS011;6543;48.836;10.092;2023-09-12T10:20:37;8.82;;;5.70;;
12956;SDS011;6543;48.836;10.092;2023-09-12T10:23:11;5.93;;;5.40;;
12956;SDS011;6543;48.836;10.092;2023-09-12T10:25:45;6.30;;;5.28;;
12956;SDS011;6543;48.836;10.092;2023-09-12T10:28:15;7.65;;;6.05;;
12956;SDS011;6543;48.836;10.092;2023-09-12T10:30:45;8.20;;;5.60;;
12956;SDS011;6543;48.836;10.092;2023-09-12T10:33:12;8.57;;;5.50;;
12956;SDS011;6543;48.836;10.092;2023-09-12T10:35:42;7.70;;;6.45;;
12956;SDS011;6543;48.836;10.092;2023-09-12T10:38:11;7.13;;;5.75;;
12956;SDS011;6543;48.836;10.092;2023-09-12T10:40:40;7.63;;;5.95;;
12956;SDS011;6543;48.836;10.092;2023-09-12T10:43:08;11.27;;;5.75;;
12956;SDS011;6543;48.836;10.092;2023-09-12T10:45:38;7.13;;;5.65;;
12956;SDS011;6543;48.836;10.092;2023-09-12T10:48:06;6.68;;;5.03;;
12956;SDS011;6543;48.836;10.092;2023-09-12T10:50:36;8.82;;;5.50;;
12956;SDS011;6543;48.836;10.092;2023-09-12T10:53:09;7.88;;;5.72;;
12956;SDS011;6543;48.836;10.092;2023-09-12T10:55:37;5.78;;;5.28;;
12956;SDS011;6543;48.836;10.092;2023-09-12T10:58:04;10.10;;;5.68;;
12956;SDS011;6543;48.836;10.092;2023-09-12T11:00:32;11.82;;;5.72;;
12956;SDS011;6543;48.836;10.092;2023-09-12T11:03:01;7.40;;;5.78;;
12956;SDS011;6543;48.836;10.092;2023-09-12T11:06:06;9.98;;;5.88;;
12956;SDS011;6543;48.836;10.092;2023-09-12T11:11:45;8.02;;;5.65;;
12956;SDS011;6543;48.836;10.092;2023-09-12T11:14:12;6.15;;;5.40;;
12956;SDS011;6543;48.836;10.092;2023-09-12T11:16:42;9.80;;;5.47;;
12956;SDS011;6543;48.836;10.092;2023-09-12T11:19:17;6.60;;;5.85;;
12956;SDS011;6543;48.836;10.092;2023-09-12T11:21:46;6.47;;;5.68;;
12956;SDS011;6543;48.836;10.092;2023-09-12T11:24:14;5.97;;;5.28;;
12956;SDS011;6543;48.836;10.092;2023-09-12T11:26:52;10.50;;;5.35;;
12956;SDS011;6543;48.836;10.092;2023-09-12T11:29:20;8.73;;;5.38;;
12956;SDS011;6543;48.836;10.092;2023-09-12T11:31:52;8.38;;;5.75;;
12956;SDS011;6543;48.836;10.092;2023-09-12T11:34:28;9.15;;;5.70;;
12956;SDS011;6543;48.836;10.092;2023-09-12T11:36:57;6.32;;;5.22;;
12956;SDS011;6543;48.836;10.092;2023-09-12T11:39:27;7.68;;;6.88;;
12956;SDS011;6543;48.836;10.092;2023-09-12T11:41:56;6.40;;;5.35;;
12956;SDS011;6543;48.836;10.092;2023-09-12T11:44:24;8.90;;;5.30;;
12956;SDS011;6543;48.836;10.092;2023-09-12T11:46:52;9.05;;;5.60;;
12956;SDS011;6543;48.836;10.092;2023-09-12T11:49:19;8.20;;;5.60;;
12956;SDS011;6543;48.836;10.092;2023-09-12T11:51:49;10.80;;;5.80;;
12956;SDS011;6543;48.836;10.092;2023-09-12T11:54:17;8.40;;;5.22;;
12956;SDS011;6543;48.836;10.092;2023-09-12T11:56:46;6.30;;;5.70;;
12956;SDS011;6543;48.836;10.092;2023-09-12T11:59:14;7.30;;;5.85;;
12956;SDS011;6543;48.836;10.092;2023-09-12T12:01:43;7.43;;;5.72;;
12956;SDS011;6543;48.836;10.092;2023-09-12T12:04:11;10.73;;;5.50;;
12956;SDS011;6543;48.836;10.092;2023-09-12T12:06:38;8.65;;;5.63;;
12956;SDS011;6543;48.836;10.092;2023-09-12T12:09:06;8.18;;;5.35;;
12956;SDS011;6543;48.836;10.092;2023-09-12T12:11:34;9.50;;;5.05;;
12956;SDS011;6543;48.836;10.092;2023-09-12T12:14:08;6.05;;;5.10;;
12956;SDS011;6543;48.836;10.092;2023-09-12T12:16:37;8.52;;;4.85;;
12956;SDS011;6543;48.836;10.092;2023-09-12T12:19:04;5.47;;;4.55;;
12956;SDS011;6543;48.836;10.092;2023-09-12T12:21:31;8.35;;;4.70;;
12956;SDS011;6543;48.836;10.092;2023-09-12T12:23:58;10.15;;;6.10;;
12956;SDS011;6543;48.836;10.092;2023-09-12T12:26:27;6.93;;;5.13;;
12956;SDS011;6543;48.836;10.092;2023-09-12T12:28:54;6.88;;;4.70;;
12956;SDS011;6543;48.836;10.092;2023-09-12T12:31:21;11.20;;;5.90;;
12956;SDS011;6543;48.836;10.092;2023-09-12T12:33:49;11.52;;;6.20;;
12956;SDS011;6543;48.836;10.092;2023-09-12T12:36:18;7.80;;;5.20;;
12956;SDS011;6543;48.836;10.092;2023-09-12T12:38:46;10.15;;;5.10;;
12956;SDS011;6543;48.836;10.092;2023-09-12T12:41:15;8.25;;;4.75;;
12956;SDS011;6543;48.836;10.092;2023-09-12T12:43:43;9.68;;;5.15;;
12956;SDS011;6543;48.836;10.092;2023-09-12T12:46:10;11.13;;;5.28;;
12956;SDS011;6543;48.836;10.092;2023-09-12T12:48:38;8.35;;;5.03;;
12956;SDS011;6543;48.836;10.092;2023-09-12T12:51:13;10.48;;;5.30;;
12956;SDS011;6543;48.836;10.092;2023-09-12T12:53:42;11.80;;;5.30;;
12956;SDS011;6543;48.836;10.092;2023-09-12T12:56:11;10.00;;;6.05;;
12956;SDS011;6543;48.836;10.092;2023-09-12T12:58:50;8.30;;;4.88;;
12956;SDS011;6543;48.836;10.092;2023-09-12T13:01:17;7.43;;;5.07;;
12956;SDS011;6543;48.836;10.092;2023-09-12T13:03:44;7.22;;;5.22;;
12956;SDS011;6543;48.836;10.092;2023-09-12T13:06:12;11.15;;;5.20;;
12956;SDS011;6543;48.836;10.092;2023-09-12T13:08:39;6.43;;;4.95;;
12956;SDS011;6543;48.836;10.092;2023-09-12T13:11:07;12.30;;;5.20;;
12956;SDS011;6543;48.836;10.092;2023-09-12T13:13:34;8.80;;;5.10;;
12956;SDS011;6543;48.836;10.092;2023-09-12T13:16:03;12.02;;;5.50;;
12956;SDS011;6543;48.836;10.092;2023-09-12T13:18:31;8.10;;;5.22;;
12956;SDS011;6543;48.836;10.092;2023-09-12T13:20:58;8.40;;;5.13;;
12956;SDS011;6543;48.836;10.092;2023-09-12T13:23:25;11.00;;;5.40;;
12956;SDS011;6543;48.836;10.092;2023-09-12T13:25:52;8.27;;;5.45;;
12956;SDS011;6543;48.836;10.092;2023-09-12T13:28:19;8.85;;;5.68;;
12956;SDS011;6543;48.836;10.092;2023-09-12T13:30:46;6.50;;;4.80;;
12956;SDS011;6543;48.836;10.092;2023-09-12T13:33:14;7.43;;;5.10;;
12956;SDS011;6543;48.836;10.092;2023-09-12T13:35:41;10.05;;;5.00;;
12956;SDS011;6543;48.836;10.092;2023-09-12T13:38:08;8.27;;;5.13;;
12956;SDS011;6543;48.836;10.092;2023-09-12T13:40:36;6.57;;;5.13;;
12956;SDS011;6543;48.836;10.092;2023-09-12T13:43:03;6.90;;;5.28;;
12956;SDS011;6543;48.836;10.092;2023-09-12T13:45:30;7.28;;;4.95;;
12956;SDS011;6543;48.836;10.092;2023-09-12T13:47:57;8.60;;;4.60;;
12956;SDS011;6543;48.836;10.092;2023-09-12T13:50:26;5.10;;;4.60;;
12956;SDS011;6543;48.836;10.092;2023-09-12T13:52:54;7.03;;;4.82;;
12956;SDS011;6543;48.836;10.092;2023-09-12T13:55:21;8.68;;;4.45;;
12956;SDS011;6543;48.836;10.092;2023-09-12T13:57:48;7.13;;;4.70;;
12956;SDS011;6543;48.836;10.092;2023-09-12T14:00:16;6.25;;;4.50;;
12956;SDS011;6543;48.836;10.092;2023-09-12T14:02:43;9.15;;;4.55;;
12956;SDS011;6543;48.836;10.092;2023-09-12T14:05:11;7.75;;;4.85;;
12956;SDS011;6543;48.836;10.092;2023-09-12T14:07:39;11.98;;;5.43;;
12956;SDS011;6543;48.836;10.092;2023-09-12T14:10:06;9.07;;;4.65;;
12956;SDS011;6543;48.836;10.092;2023-09-12T14:12:34;5.80;;;4.72;;
12956;SDS011;6543;48.836;10.092;2023-09-12T14:15:00;10.82;;;5.13;;
12956;SDS011;6543;48.836;10.092;2023-09-12T14:17:28;5.10;;;4.60;;
12956;SDS011;6543;48.836;10.092;2023-09-12T14:19:55;8.80;;;4.43;;
12956;SDS011;6543;48.836;10.092;2023-09-12T14:22:22;9.02;;;5.97;;
12956;SDS011;6543;48.836;10.092;2023-09-12T14:24:50;8.15;;;5.15;;
12956;SDS011;6543;48.836;10.092;2023-09-12T14:27:17;6.55;;;5.00;;
12956;SDS011;6543;48.836;10.092;2023-09-12T14:29:44;10.85;;;5.28;;
12956;SDS011;6543;48.836;10.092;2023-09-12T14:32:13;8.93;;;4.80;;
12956;SDS011;6543;48.836;10.092;2023-09-12T14:34:41;8.80;;;5.40;;
12956;SDS011;6543;48.836;10.092;2023-09-12T14:37:10;6.60;;;4.47;;
12956;SDS011;6543;48.836;10.092;2023-09-12T14:39:37;9.20;;;5.65;;
12956;SDS011;6543;48.836;10.092;2023-09-12T14:42:05;8.20;;;4.65;;
12956;SDS011;6543;48.836;10.092;2023-09-12T14:44:34;7.72;;;4.75;;
12956;SDS011;6543;48.836;10.092;2023-09-12T14:47:01;9.95;;;5.35;;